sensor_id;sensor_type;location;lat;lon;timestamp;pressure;altitude;pressure_sealevel;temperature;humidity
50867;BME280;36839;51.946;21.002;2023-06-14T00:01:35;100317.65;;;11.95;100.00
50867;BME280;36839;51.946;21.002;2023-06-14T00:04:07;100319.86;;;11.96;100.00
50867;BME280;36839;51.946;21.002;2023-06-14T00:06:39;100313.48;;;11.95;100.00
50867;BME280;36839;51.946;21.002;2023-06-14T00:09:08;100310.77;;;11.90;100.00
50867;BME280;36839;51.946;21.002;2023-06-14T00:11:35;100307.23;;;11.86;100.00
50867;BME280;36839;51.946;21.002;2023-06-14T00:14:04;100306.50;;;11.81;100.00
50867;BME280;36839;51.946;21.002;2023-06-14T00:16:32;100307.08;;;11.75;100.00
50867;BME280;36839;51.946;21.002;2023-06-14T00:19:04;100305.47;;;11.71;100.00
50867;BME280;36839;51.946;21.002;2023-06-14T00:21:31;100303.42;;;11.70;100.00
50867;BME280;36839;51.946;21.002;2023-06-14T00:23:59;100304.54;;;11.74;100.00
50867;BME280;36839;51.946;21.002;2023-06-14T00:26:30;100305.98;;;11.77;100.00
50867;BME280;36839;51.946;21.002;2023-06-14T00:28:57;100308.21;;;11.80;100.00
50867;BME280;36839;51.946;21.002;2023-06-14T00:31:28;100308.32;;;11.84;100.00
50867;BME280;36839;51.946;21.002;2023-06-14T00:34:00;100306.55;;;11.83;100.00
50867;BME280;36839;51.946;21.002;2023-06-14T00:36:30;100304.39;;;11.84;100.00
50867;BME280;36839;51.946;21.002;2023-06-14T00:39:02;100300.70;;;11.86;100.00
50867;BME280;36839;51.946;21.002;2023-06-14T00:41:32;100296.59;;;11.83;100.00
50867;BME280;36839;51.946;21.002;2023-06-14T00:44:01;100302.00;;;11.84;100.00
50867;BME280;36839;51.946;21.002;2023-06-14T00:46:29;100301.74;;;11.88;100.00
50867;BME280;36839;51.946;21.002;2023-06-14T00:49:01;100306.05;;;11.92;100.00
50867;BME280;36839;51.946;21.002;2023-06-14T00:51:33;100307.95;;;11.96;100.00
50867;BME280;36839;51.946;21.002;2023-06-14T00:54:01;100307.89;;;11.98;100.00
50867;BME280;36839;51.946;21.002;2023-06-14T00:56:31;100307.89;;;11.97;100.00
50867;BME280;36839;51.946;21.002;2023-06-14T00:59:00;100306.06;;;11.93;100.00
50867;BME280;36839;51.946;21.002;2023-06-14T01:01:29;100305.33;;;11.91;100.00
50867;BME280;36839;51.946;21.002;2023-06-14T01:04:06;100298.75;;;11.93;100.00
50867;BME280;36839;51.946;21.002;2023-06-14T01:07:15;100300.92;;;11.96;100.00
50867;BME280;36839;51.946;21.002;2023-06-14T01:16:08;100299.59;;;11.94;100.00
50867;BME280;36839;51.946;21.002;2023-06-14T01:18:36;100298.77;;;11.94;100.00
50867;BME280;36839;51.946;21.002;2023-06-14T01:21:04;100297.14;;;11.92;100.00
50867;BME280;36839;51.946;21.002;2023-06-14T01:23:36;100292.66;;;11.91;100.00
50867;BME280;36839;51.946;21.002;2023-06-14T01:26:04;100294.05;;;11.92;100.00
50867;BME280;36839;51.946;21.002;2023-06-14T01:28:46;100294.34;;;11.95;100.00
50867;BME280;36839;51.946;21.002;2023-06-14T01:31:29;100294.17;;;11.94;100.00
50867;BME280;36839;51.946;21.002;2023-06-14T01:34:09;100293.39;;;11.94;100.00
50867;BME280;36839;51.946;21.002;2023-06-14T01:36:36;100291.55;;;11.91;100.00
50867;BME280;36839;51.946;21.002;2023-06-14T01:39:22;100292.95;;;11.94;100.00
50867;BME280;36839;51.946;21.002;2023-06-14T01:41:51;100292.13;;;11.96;100.00
50867;BME280;36839;51.946;21.002;2023-06-14T01:44:19;100289.23;;;11.92;100.00
50867;BME280;36839;51.946;21.002;2023-06-14T01:46:47;100288.34;;;11.90;100.00
50867;BME280;36839;51.946;21.002;2023-06-14T01:49:18;100284.26;;;11.86;100.00
50867;BME280;36839;51.946;21.002;2023-06-14T01:51:44;100287.52;;;11.81;100.00
50867;BME280;36839;51.946;21.002;2023-06-14T01:54:12;100287.90;;;11.79;100.00
50867;BME280;36839;51.946;21.002;2023-06-14T01:56:41;100288.77;;;11.79;100.00
50867;BME280;36839;51.946;21.002;2023-06-14T01:59:08;100285.45;;;11.78;100.00
50867;BME280;36839;51.946;21.002;2023-06-14T02:01:40;100285.55;;;11.74;100.00
50867;BME280;36839;51.946;21.002;2023-06-14T02:04:10;100283.66;;;11.72;100.00
50867;BME280;36839;51.946;21.002;2023-06-14T02:06:40;100281.17;;;11.72;100.00
50867;BME280;36839;51.946;21.002;2023-06-14T02:09:08;100283.39;;;11.70;100.00
50867;BME280;36839;51.946;21.002;2023-06-14T02:11:36;100285.66;;;11.70;100.00
50867;BME280;36839;51.946;21.002;2023-06-14T02:14:05;100288.48;;;11.70;100.00
50867;BME280;36839;51.946;21.002;2023-06-14T02:16:41;100286.88;;;11.69;100.00
50867;BME280;36839;51.946;21.002;2023-06-14T02:19:16;100288.33;;;11.68;100.00
50867;BME280;36839;51.946;21.002;2023-06-14T02:21:44;100283.66;;;11.66;100.00
50867;BME280;36839;51.946;21.002;2023-06-14T02:24:13;100285.38;;;11.64;100.00
50867;BME280;36839;51.946;21.002;2023-06-14T02:26:45;100280.41;;;11.66;100.00
50867;BME280;36839;51.946;21.002;2023-06-14T02:29:12;100280.30;;;11.65;100.00
50867;BME280;36839;51.946;21.002;2023-06-14T02:31:42;100278.68;;;11.63;100.00
50867;BME280;36839;51.946;21.002;2023-06-14T02:34:11;100284.10;;;11.64;100.00
50867;BME280;36839;51.946;21.002;2023-06-14T02:36:47;100287.59;;;11.69;100.00
50867;BME280;36839;51.946;21.002;2023-06-14T02:39:24;100286.77;;;11.72;100.00
50867;BME280;36839;51.946;21.002;2023-06-14T02:41:54;100288.38;;;11.71;100.00
50867;BME280;36839;51.946;21.002;2023-06-14T02:44:30;100289.98;;;11.72;100.00
50867;BME280;36839;51.946;21.002;2023-06-14T02:47:04;100284.33;;;11.72;100.00
50867;BME280;36839;51.946;21.002;2023-06-14T02:49:32;100280.90;;;11.74;100.00
50867;BME280;36839;51.946;21.002;2023-06-14T02:52:01;100279.31;;;11.76;100.00
50867;BME280;36839;51.946;21.002;2023-06-14T02:54:36;100276.81;;;11.78;100.00
50867;BME280;36839;51.946;21.002;2023-06-14T02:57:23;100269.98;;;11.84;100.00
50867;BME280;36839;51.946;21.002;2023-06-14T02:59:50;100264.65;;;11.79;100.00
50867;BME280;36839;51.946;21.002;2023-06-14T03:02:17;100261.10;;;11.76;100.00
50867;BME280;36839;51.946;21.002;2023-06-14T03:04:46;100260.03;;;11.73;100.00
50867;BME280;36839;51.946;21.002;2023-06-14T03:07:14;100263.20;;;11.71;100.00
50867;BME280;36839;51.946;21.002;2023-06-14T03:09:48;100267.89;;;11.70;100.00
50867;BME280;36839;51.946;21.002;2023-06-14T03:12:16;100263.58;;;11.72;100.00
50867;BME280;36839;51.946;21.002;2023-06-14T03:14:43;100272.20;;;11.73;100.00
50867;BME280;36839;51.946;21.002;2023-06-14T03:17:12;100274.08;;;11.74;100.00
50867;BME280;36839;51.946;21.002;2023-06-14T03:19:41;100274.86;;;11.74;100.00
50867;BME280;36839;51.946;21.002;2023-06-14T03:22:11;100267.64;;;11.76;100.00
50867;BME280;36839;51.946;21.002;2023-06-14T03:24:41;100273.98;;;11.79;100.00
50867;BME280;36839;51.946;21.002;2023-06-14T03:27:12;100275.50;;;11.83;100.00
50867;BME280;36839;51.946;21.002;2023-06-14T03:29:48;100274.02;;;11.88;100.00
50867;BME280;36839;51.946;21.002;2023-06-14T03:32:16;100278.01;;;11.93;100.00
50867;BME280;36839;51.946;21.002;2023-06-14T03:34:44;100275.67;;;11.98;100.00
50867;BME280;36839;51.946;21.002;2023-06-14T03:37:12;100276.55;;;12.00;100.00
50867;BME280;36839;51.946;21.002;2023-06-14T03:42:05;100269.30;;;12.01;100.00
50867;BME280;36839;51.946;21.002;2023-06-14T03:44:36;100267.27;;;11.97;100.00
50867;BME280;36839;51.946;21.002;2023-06-14T03:47:05;100270.56;;;11.93;100.00
50867;BME280;36839;51.946;21.002;2023-06-14T03:49:35;100275.50;;;11.90;100.00
50867;BME280;36839;51.946;21.002;2023-06-14T03:52:16;100273.84;;;11.89;100.00
50867;BME280;36839;51.946;21.002;2023-06-14T03:54:44;100276.22;;;11.92;100.00
50867;BME280;36839;51.946;21.002;2023-06-14T03:57:16;100274.77;;;11.93;100.00
50867;BME280;36839;51.946;21.002;2023-06-14T03:59:44;100279.77;;;11.96;100.00
50867;BME280;36839;51.946;21.002;2023-06-14T04:02:10;100278.92;;;12.02;100.00
50867;BME280;36839;51.946;21.002;2023-06-14T04:04:40;100282.75;;;12.07;100.00
50867;BME280;36839;51.946;21.002;2023-06-14T04:07:13;100283.23;;;12.12;100.00
50867;BME280;36839;51.946;21.002;2023-06-14T04:09:40;100286.00;;;12.17;100.00
50867;BME280;36839;51.946;21.002;2023-06-14T04:12:07;100282.60;;;12.21;100.00
50867;BME280;36839;51.946;21.002;2023-06-14T04:14:40;100283.89;;;12.23;100.00
50867;BME280;36839;51.946;21.002;2023-06-14T04:17:10;100282.77;;;12.26;100.00
50867;BME280;36839;51.946;21.002;2023-06-14T04:19:39;100283.59;;;12.35;100.00
50867;BME280;36839;51.946;21.002;2023-06-14T04:22:06;100282.12;;;12.43;100.00
50867;BME280;36839;51.946;21.002;2023-06-14T04:24:34;100279.94;;;12.48;100.00
50867;BME280;36839;51.946;21.002;2023-06-14T04:27:04;100278.00;;;12.52;100.00
50867;BME280;36839;51.946;21.002;2023-06-14T04:29:38;100275.98;;;12.56;100.00
50867;BME280;36839;51.946;21.002;2023-06-14T04:32:09;100274.15;;;12.62;100.00
50867;BME280;36839;51.946;21.002;2023-06-14T04:34:40;100274.61;;;12.67;100.00
50867;BME280;36839;51.946;21.002;2023-06-14T04:37:09;100270.56;;;12.67;100.00
50867;BME280;36839;51.946;21.002;2023-06-14T04:39:39;100276.81;;;12.74;100.00
50867;BME280;36839;51.946;21.002;2023-06-14T04:42:16;100269.84;;;12.82;100.00
50867;BME280;36839;51.946;21.002;2023-06-14T04:44:49;100274.20;;;12.85;100.00
50867;BME280;36839;51.946;21.002;2023-06-14T04:47:17;100271.02;;;12.83;100.00
50867;BME280;36839;51.946;21.002;2023-06-14T04:49:51;100266.48;;;12.80;100.00
50867;BME280;36839;51.946;21.002;2023-06-14T04:52:23;100264.86;;;12.77;100.00
50867;BME280;36839;51.946;21.002;2023-06-14T04:55:03;100270.02;;;12.81;100.00
50867;BME280;36839;51.946;21.002;2023-06-14T04:57:31;100268.84;;;12.84;100.00
50867;BME280;36839;51.946;21.002;2023-06-14T04:59:59;100272.64;;;12.91;100.00
50867;BME280;36839;51.946;21.002;2023-06-14T05:02:27;100268.42;;;12.91;100.00
50867;BME280;36839;51.946;21.002;2023-06-14T05:04:58;100274.67;;;12.93;100.00
50867;BME280;36839;51.946;21.002;2023-06-14T05:07:26;100273.60;;;12.96;100.00
50867;BME280;36839;51.946;21.002;2023-06-14T05:09:53;100275.20;;;13.08;100.00
50867;BME280;36839;51.946;21.002;2023-06-14T05:12:21;100276.22;;;13.16;100.00
50867;BME280;36839;51.946;21.002;2023-06-14T05:14:47;100274.13;;;13.26;100.00
50867;BME280;36839;51.946;21.002;2023-06-14T05:17:16;100272.81;;;13.33;100.00
50867;BME280;36839;51.946;21.002;2023-06-14T05:19:45;100275.98;;;13.32;100.00
50867;BME280;36839;51.946;21.002;2023-06-14T05:22:12;100268.70;;;13.33;100.00
50867;BME280;36839;51.946;21.002;2023-06-14T05:24:43;100268.19;;;13.35;100.00
50867;BME280;36839;51.946;21.002;2023-06-14T05:27:13;100264.70;;;13.37;100.00
50867;BME280;36839;51.946;21.002;2023-06-14T05:29:47;100266.65;;;13.42;100.00
50867;BME280;36839;51.946;21.002;2023-06-14T05:32:16;100268.55;;;13.40;100.00
50867;BME280;36839;51.946;21.002;2023-06-14T05:34:49;100265.73;;;13.43;100.00
50867;BME280;36839;51.946;21.002;2023-06-14T05:37:16;100262.30;;;13.43;100.00
50867;BME280;36839;51.946;21.002;2023-06-14T05:39:43;100261.13;;;13.44;100.00
50867;BME280;36839;51.946;21.002;2023-06-14T05:42:11;100263.93;;;13.50;100.00
50867;BME280;36839;51.946;21.002;2023-06-14T05:44:39;100263.72;;;13.56;100.00
50867;BME280;36839;51.946;21.002;2023-06-14T05:47:11;100268.24;;;13.66;100.00
50867;BME280;36839;51.946;21.002;2023-06-14T05:49:41;100266.90;;;13.88;100.00
50867;BME280;36839;51.946;21.002;2023-06-14T05:52:09;100268.96;;;14.11;100.00
50867;BME280;36839;51.946;21.002;2023-06-14T05:54:36;100273.33;;;14.34;100.00
50867;BME280;36839;51.946;21.002;2023-06-14T05:57:05;100274.95;;;14.52;100.00
50867;BME280;36839;51.946;21.002;2023-06-14T05:59:34;100273.89;;;14.67;100.00
50867;BME280;36839;51.946;21.002;2023-06-14T06:02:00;100267.33;;;14.57;100.00
50867;BME280;36839;51.946;21.002;2023-06-14T06:04:29;100260.75;;;14.60;100.00
50867;BME280;36839;51.946;21.002;2023-06-14T06:07:01;100261.48;;;14.68;100.00
50867;BME280;36839;51.946;21.002;2023-06-14T06:09:33;100260.81;;;14.68;100.00
50867;BME280;36839;51.946;21.002;2023-06-14T06:12:06;100260.15;;;14.63;100.00
50867;BME280;36839;51.946;21.002;2023-06-14T06:14:33;100264.58;;;14.64;100.00
50867;BME280;36839;51.946;21.002;2023-06-14T06:17:02;100262.80;;;14.82;100.00
50867;BME280;36839;51.946;21.002;2023-06-14T06:19:29;100263.23;;;15.04;100.00
50867;BME280;36839;51.946;21.002;2023-06-14T06:21:56;100269.91;;;15.28;100.00
50867;BME280;36839;51.946;21.002;2023-06-14T06:24:23;100274.02;;;15.52;100.00
50867;BME280;36839;51.946;21.002;2023-06-14T06:26:50;100273.61;;;15.78;100.00
50867;BME280;36839;51.946;21.002;2023-06-14T06:29:16;100274.91;;;16.00;100.00
50867;BME280;36839;51.946;21.002;2023-06-14T06:31:44;100272.53;;;16.27;100.00
50867;BME280;36839;51.946;21.002;2023-06-14T06:34:13;100269.52;;;16.49;100.00
50867;BME280;36839;51.946;21.002;2023-06-14T06:36:43;100264.79;;;16.71;100.00
50867;BME280;36839;51.946;21.002;2023-06-14T06:39:13;100266.34;;;16.86;100.00
50867;BME280;36839;51.946;21.002;2023-06-14T06:41:41;100268.60;;;16.88;100.00
50867;BME280;36839;51.946;21.002;2023-06-14T06:44:11;100270.48;;;16.82;100.00
50867;BME280;36839;51.946;21.002;2023-06-14T06:46:45;100274.73;;;16.93;100.00
50867;BME280;36839;51.946;21.002;2023-06-14T06:49:16;100276.93;;;16.96;100.00
50867;BME280;36839;51.946;21.002;2023-06-14T06:52:05;100273.59;;;17.06;100.00
50867;BME280;36839;51.946;21.002;2023-06-14T06:54:36;100280.95;;;17.10;100.00
50867;BME280;36839;51.946;21.002;2023-06-14T06:57:03;100275.27;;;17.04;100.00
50867;BME280;36839;51.946;21.002;2023-06-14T06:59:32;100271.98;;;17.06;100.00
50867;BME280;36839;51.946;21.002;2023-06-14T07:02:11;100272.43;;;17.16;100.00
50867;BME280;36839;51.946;21.002;2023-06-14T07:04:39;100278.04;;;17.25;100.00
50867;BME280;36839;51.946;21.002;2023-06-14T07:07:06;100279.70;;;17.30;100.00
50867;BME280;36839;51.946;21.002;2023-06-14T07:09:34;100283.04;;;17.38;100.00
50867;BME280;36839;51.946;21.002;2023-06-14T07:12:04;100280.67;;;17.54;100.00
50867;BME280;36839;51.946;21.002;2023-06-14T07:14:39;100277.61;;;17.68;100.00
50867;BME280;36839;51.946;21.002;2023-06-14T07:17:06;100278.52;;;17.80;100.00
50867;BME280;36839;51.946;21.002;2023-06-14T07:19:34;100278.67;;;17.88;100.00
50867;BME280;36839;51.946;21.002;2023-06-14T07:22:02;100273.69;;;17.98;100.00
50867;BME280;36839;51.946;21.002;2023-06-14T07:24:40;100276.25;;;18.12;100.00
50867;BME280;36839;51.946;21.002;2023-06-14T07:27:09;100276.66;;;18.17;100.00
50867;BME280;36839;51.946;21.002;2023-06-14T07:29:50;100275.16;;;18.19;100.00
50867;BME280;36839;51.946;21.002;2023-06-14T07:32:18;100282.04;;;18.26;100.00
50867;BME280;36839;51.946;21.002;2023-06-14T07:34:44;100286.58;;;18.36;100.00
50867;BME280;36839;51.946;21.002;2023-06-14T07:37:13;100284.20;;;18.45;100.00
50867;BME280;36839;51.946;21.002;2023-06-14T07:39:43;100283.55;;;18.56;100.00
50867;BME280;36839;51.946;21.002;2023-06-14T07:42:10;100280.63;;;18.63;100.00
50867;BME280;36839;51.946;21.002;2023-06-14T07:44:39;100283.04;;;18.63;100.00
50867;BME280;36839;51.946;21.002;2023-06-14T07:47:08;100276.71;;;18.58;100.00
50867;BME280;36839;51.946;21.002;2023-06-14T07:49:37;100279.55;;;18.65;100.00
50867;BME280;36839;51.946;21.002;2023-06-14T07:52:08;100281.75;;;18.75;100.00
50867;BME280;36839;51.946;21.002;2023-06-14T07:54:37;100274.80;;;18.81;100.00
50867;BME280;36839;51.946;21.002;2023-06-14T07:57:05;100272.01;;;18.85;100.00
50867;BME280;36839;51.946;21.002;2023-06-14T07:59:32;100268.91;;;18.86;100.00
50867;BME280;36839;51.946;21.002;2023-06-14T08:01:59;100268.40;;;18.88;100.00
50867;BME280;36839;51.946;21.002;2023-06-14T08:04:28;100268.70;;;18.91;100.00
50867;BME280;36839;51.946;21.002;2023-06-14T08:06:54;100268.89;;;18.90;100.00
50867;BME280;36839;51.946;21.002;2023-06-14T08:09:23;100269.73;;;18.79;99.97
50867;BME280;36839;51.946;21.002;2023-06-14T08:12:05;100272.42;;;18.87;99.97
50867;BME280;36839;51.946;21.002;2023-06-14T08:14:42;100272.08;;;18.93;99.98
50867;BME280;36839;51.946;21.002;2023-06-14T08:17:12;100269.83;;;19.02;99.94
50867;BME280;36839;51.946;21.002;2023-06-14T08:19:40;100269.29;;;19.05;99.37
50867;BME280;36839;51.946;21.002;2023-06-14T08:22:07;100264.80;;;19.13;98.35
50867;BME280;36839;51.946;21.002;2023-06-14T08:24:39;100268.27;;;19.17;97.46
50867;BME280;36839;51.946;21.002;2023-06-14T08:27:10;100268.55;;;19.26;96.74
50867;BME280;36839;51.946;21.002;2023-06-14T08:29:43;100269.88;;;19.37;95.89
50867;BME280;36839;51.946;21.002;2023-06-14T08:32:09;100273.15;;;19.44;95.40
50867;BME280;36839;51.946;21.002;2023-06-14T08:34:41;100275.13;;;19.50;97.31
50867;BME280;36839;51.946;21.002;2023-06-14T08:37:14;100274.26;;;19.57;96.96
50867;BME280;36839;51.946;21.002;2023-06-14T08:39:41;100271.76;;;19.70;97.91
50867;BME280;36839;51.946;21.002;2023-06-14T08:42:11;100269.08;;;19.85;93.83
50867;BME280;36839;51.946;21.002;2023-06-14T08:44:50;100265.75;;;20.12;95.38
50867;BME280;36839;51.946;21.002;2023-06-14T08:47:23;100260.89;;;20.37;93.98
50867;BME280;36839;51.946;21.002;2023-06-14T08:49:59;100264.73;;;20.46;89.48
50867;BME280;36839;51.946;21.002;2023-06-14T08:52:38;100265.88;;;20.36;88.85
50867;BME280;36839;51.946;21.002;2023-06-14T08:55:19;100268.46;;;20.34;88.71
50867;BME280;36839;51.946;21.002;2023-06-14T08:57:55;100266.79;;;20.18;86.62
50867;BME280;36839;51.946;21.002;2023-06-14T09:00:31;100264.90;;;20.22;89.39
50867;BME280;36839;51.946;21.002;2023-06-14T09:03:02;100268.45;;;20.25;89.76
50867;BME280;36839;51.946;21.002;2023-06-14T09:05:30;100266.36;;;20.46;92.15
50867;BME280;36839;51.946;21.002;2023-06-14T09:07:59;100266.34;;;20.63;91.50
50867;BME280;36839;51.946;21.002;2023-06-14T09:10:44;100265.63;;;20.59;86.22
50867;BME280;36839;51.946;21.002;2023-06-14T09:13:20;100267.20;;;20.47;85.20
50867;BME280;36839;51.946;21.002;2023-06-14T09:15:53;100263.09;;;20.60;87.26
50867;BME280;36839;51.946;21.002;2023-06-14T09:18:24;100265.30;;;20.86;87.56
50867;BME280;36839;51.946;21.002;2023-06-14T09:21:12;100263.96;;;21.12;86.20
50867;BME280;36839;51.946;21.002;2023-06-14T09:23:47;100265.38;;;21.23;84.70
50867;BME280;36839;51.946;21.002;2023-06-14T09:26:18;100264.98;;;21.27;84.67
50867;BME280;36839;51.946;21.002;2023-06-14T09:28:49;100262.10;;;21.10;82.49
50867;BME280;36839;51.946;21.002;2023-06-14T09:31:19;100255.44;;;20.78;81.97
50867;BME280;36839;51.946;21.002;2023-06-14T09:33:50;100257.23;;;20.63;83.93
50867;BME280;36839;51.946;21.002;2023-06-14T09:36:26;100260.45;;;20.32;85.52
50867;BME280;36839;51.946;21.002;2023-06-14T09:39:03;100258.60;;;20.18;85.94
50867;BME280;36839;51.946;21.002;2023-06-14T09:41:37;100258.48;;;20.10;81.54
50867;BME280;36839;51.946;21.002;2023-06-14T09:44:22;100257.71;;;20.07;78.70
50867;BME280;36839;51.946;21.002;2023-06-14T09:46:51;100255.98;;;20.09;78.96
50867;BME280;36839;51.946;21.002;2023-06-14T09:49:19;100251.67;;;20.20;81.79
50867;BME280;36839;51.946;21.002;2023-06-14T09:51:50;100252.67;;;20.12;79.82
50867;BME280;36839;51.946;21.002;2023-06-14T09:54:26;100253.42;;;20.07;81.84
50867;BME280;36839;51.946;21.002;2023-06-14T09:56:59;100255.36;;;19.95;82.50
50867;BME280;36839;51.946;21.002;2023-06-14T09:59:31;100250.11;;;20.10;84.73
50867;BME280;36839;51.946;21.002;2023-06-14T10:02:09;100257.09;;;20.19;84.03
50867;BME280;36839;51.946;21.002;2023-06-14T10:04:37;100253.48;;;20.19;81.66
50867;BME280;36839;51.946;21.002;2023-06-14T10:07:07;100250.11;;;20.10;81.68
50867;BME280;36839;51.946;21.002;2023-06-14T10:09:38;100256.79;;;20.15;80.65
50867;BME280;36839;51.946;21.002;2023-06-14T10:12:22;100254.80;;;20.14;80.21
50867;BME280;36839;51.946;21.002;2023-06-14T10:14:53;100250.35;;;20.05;79.69
50867;BME280;36839;51.946;21.002;2023-06-14T10:20:53;100251.21;;;20.19;80.81
50867;BME280;36839;51.946;21.002;2023-06-14T10:23:21;100249.13;;;20.21;78.70
50867;BME280;36839;51.946;21.002;2023-06-14T10:25:50;100247.30;;;19.96;80.72
50867;BME280;36839;51.946;21.002;2023-06-14T10:28:23;100247.75;;;19.81;82.54
50867;BME280;36839;51.946;21.002;2023-06-14T10:31:10;100244.58;;;19.69;84.13
50867;BME280;36839;51.946;21.002;2023-06-14T10:33:56;100245.48;;;19.58;85.21
50867;BME280;36839;51.946;21.002;2023-06-14T10:36:31;100246.30;;;19.53;84.22
50867;BME280;36839;51.946;21.002;2023-06-14T10:39:16;100245.30;;;19.52;85.21
50867;BME280;36839;51.946;21.002;2023-06-14T10:41:54;100242.98;;;19.51;86.09
50867;BME280;36839;51.946;21.002;2023-06-14T10:47:07;100239.40;;;19.41;86.76
50867;BME280;36839;51.946;21.002;2023-06-14T10:50:06;100233.31;;;19.53;85.11
50867;BME280;36839;51.946;21.002;2023-06-14T10:53:50;100236.68;;;19.77;85.03
50867;BME280;36839;51.946;21.002;2023-06-14T10:56:30;100232.98;;;19.85;84.69
50867;BME280;36839;51.946;21.002;2023-06-14T10:59:07;100232.30;;;19.77;81.86
50867;BME280;36839;51.946;21.002;2023-06-14T11:04:20;100233.77;;;19.50;83.00
50867;BME280;36839;51.946;21.002;2023-06-14T11:06:49;100231.42;;;19.38;80.68
50867;BME280;36839;51.946;21.002;2023-06-14T11:12:34;100232.30;;;19.22;83.95
50867;BME280;36839;51.946;21.002;2023-06-14T11:15:10;100231.92;;;19.11;85.32
50867;BME280;36839;51.946;21.002;2023-06-14T11:18:13;100229.98;;;19.09;88.05
50867;BME280;36839;51.946;21.002;2023-06-14T11:20:45;100226.02;;;19.01;88.05
50867;BME280;36839;51.946;21.002;2023-06-14T11:23:12;100224.92;;;19.04;88.81
50867;BME280;36839;51.946;21.002;2023-06-14T11:25:39;100228.02;;;19.06;89.28
50867;BME280;36839;51.946;21.002;2023-06-14T11:28:09;100225.14;;;19.06;90.78
50867;BME280;36839;51.946;21.002;2023-06-14T11:32:06;100222.83;;;19.07;89.05
50867;BME280;36839;51.946;21.002;2023-06-14T11:34:33;100220.66;;;19.08;89.50
50867;BME280;36839;51.946;21.002;2023-06-14T11:37:06;100218.16;;;19.07;88.12
50867;BME280;36839;51.946;21.002;2023-06-14T11:39:35;100221.77;;;19.04;87.46
50867;BME280;36839;51.946;21.002;2023-06-14T11:42:03;100223.89;;;19.10;87.72
50867;BME280;36839;51.946;21.002;2023-06-14T11:44:32;100222.71;;;19.18;87.74
50867;BME280;36839;51.946;21.002;2023-06-14T11:47:03;100220.02;;;19.18;86.99
50867;BME280;36839;51.946;21.002;2023-06-14T11:49:38;100218.13;;;19.22;86.67
50867;BME280;36839;51.946;21.002;2023-06-14T11:52:08;100214.71;;;19.36;87.78
50867;BME280;36839;51.946;21.002;2023-06-14T11:54:40;100216.36;;;19.52;88.05
50867;BME280;36839;51.946;21.002;2023-06-14T11:57:09;100215.89;;;19.61;86.48
50867;BME280;36839;51.946;21.002;2023-06-14T11:59:44;100216.20;;;19.64;83.73
50867;BME280;36839;51.946;21.002;2023-06-14T12:02:15;100216.82;;;19.62;81.57
50867;BME280;36839;51.946;21.002;2023-06-14T12:04:43;100219.35;;;19.65;82.07
50867;BME280;36839;51.946;21.002;2023-06-14T12:07:14;100219.94;;;19.68;80.80
50867;BME280;36839;51.946;21.002;2023-06-14T12:10:07;100220.23;;;19.57;78.40
50867;BME280;36839;51.946;21.002;2023-06-14T12:12:40;100220.85;;;19.53;77.30
50867;BME280;36839;51.946;21.002;2023-06-14T12:15:11;100218.77;;;19.63;77.32
50867;BME280;36839;51.946;21.002;2023-06-14T12:17:39;100215.30;;;19.61;75.16
50867;BME280;36839;51.946;21.002;2023-06-14T12:20:10;100214.57;;;19.55;75.18
50867;BME280;36839;51.946;21.002;2023-06-14T12:22:37;100214.91;;;19.46;75.75
50867;BME280;36839;51.946;21.002;2023-06-14T12:25:06;100212.31;;;19.55;76.46
50867;BME280;36839;51.946;21.002;2023-06-14T12:27:41;100212.77;;;19.81;77.23
50867;BME280;36839;51.946;21.002;2023-06-14T12:30:15;100217.88;;;19.86;71.98
50867;BME280;36839;51.946;21.002;2023-06-14T12:32:47;100215.04;;;19.85;72.61
50867;BME280;36839;51.946;21.002;2023-06-14T12:35:18;100211.66;;;19.95;73.06
50867;BME280;36839;51.946;21.002;2023-06-14T12:37:56;100205.18;;;19.87;72.99
50867;BME280;36839;51.946;21.002;2023-06-14T12:40:35;100202.48;;;19.95;71.85
50867;BME280;36839;51.946;21.002;2023-06-14T12:43:06;100202.03;;;19.91;72.45
50867;BME280;36839;51.946;21.002;2023-06-14T12:45:34;100194.73;;;19.97;71.90
50867;BME280;36839;51.946;21.002;2023-06-14T12:48:04;100193.82;;;20.15;72.59
50867;BME280;36839;51.946;21.002;2023-06-14T12:50:34;100199.13;;;20.43;69.64
50867;BME280;36839;51.946;21.002;2023-06-14T12:53:02;100197.52;;;20.72;68.40
50867;BME280;36839;51.946;21.002;2023-06-14T12:55:28;100190.73;;;20.92;65.43
50867;BME280;36839;51.946;21.002;2023-06-14T12:58:12;100188.61;;;21.02;64.29
50867;BME280;36839;51.946;21.002;2023-06-14T13:00:47;100188.89;;;21.23;67.05
50867;BME280;36839;51.946;21.002;2023-06-14T13:03:15;100184.80;;;21.27;65.86
50867;BME280;36839;51.946;21.002;2023-06-14T13:05:48;100182.27;;;21.02;63.04
50867;BME280;36839;51.946;21.002;2023-06-14T13:08:23;100184.72;;;21.15;62.82
50867;BME280;36839;51.946;21.002;2023-06-14T13:10:53;100179.27;;;21.49;63.15
50867;BME280;36839;51.946;21.002;2023-06-14T13:13:23;100180.88;;;21.70;61.63
50867;BME280;36839;51.946;21.002;2023-06-14T13:15:51;100181.94;;;21.66;59.48
50867;BME280;36839;51.946;21.002;2023-06-14T13:18:19;100182.55;;;21.70;57.95